Time,TemperatureF,DewpointF,PressureIn,WindDirection,WindDirectionDegrees,WindSpeedMPH,WindSpeedGustMPH,Humidity,HourlyPrecipIn,Conditions,Clouds,dailyrainin,SolarRadiationWatts/m^2,SoftwareType,DateUTC
2013-07-15 00:00:00,55.8,48.7,30.02,ENE,68,0.0,-999.0,77,0.00,,,0.00,0,Wunderground v.1.15,2013-07-15 07:00:00,
2013-07-15 00:05:00,55.8,48.7,30.02,ENE,68,0.0,-999.0,77,0.00,,,0.00,0,Wunderground v.1.15,2013-07-15 07:05:00,
2013-07-15 00:10:00,55.8,48.7,30.02,ENE,68,0.0,-999.0,77,0.00,,,0.00,0,Wunderground v.1.15,2013-07-15 07:10:00,
2013-07-15 00:14:00,55.6,49.0,30.02,ENE,69,0.0,1.0,77,0.00,,,0.00,0,weatherlink.com 1.10,2013-07-15 07:14:00,
2013-07-15 00:15:00,55.8,48.7,30.02,ENE,68,0.0,-999.0,77,0.00,,,0.00,0,Wunderground v.1.15,2013-07-15 07:15:00,
2013-07-15 00:20:00,55.8,48.7,30.02,ENE,68,0.0,-999.0,77,0.00,,,0.00,0,Wunderground v.1.15,2013-07-15 07:20:00,
2013-07-15 00:25:00,55.2,48.5,30.02,N/A,-737280,0.0,-999.0,78,0.00,,,0.00,0,Wunderground v.1.15,2013-07-15 07:25:00,
2013-07-15 00:29:00,55.0,48.0,30.02,ENE,69,0.0,0.0,78,0.00,,,0.00,0,weatherlink.com 1.10,2013-07-15 07:29:00,
2013-07-15 00:30:00,55.2,48.5,30.02,N/A,-737280,0.0,-999.0,78,0.00,,,0.00,0,Wunderground v.1.15,2013-07-15 07:30:00,
2013-07-15 00:35:00,55.2,48.5,30.02,N/A,-737280,0.0,-999.0,78,0.00,,,0.00,0,Wunderground v.1.15,2013-07-15 07:35:00,
2013-07-15 00:40:00,54.7,48.6,30.02,N/A,-737280,0.0,-999.0,80,0.00,,,0.00,0,Wunderground v.1.15,2013-07-15 07:40:00,
2013-07-15 00:44:00,54.6,48.0,30.02,ENE,69,0.0,0.0,79,0.00,,,0.00,0,weatherlink.com 1.10,2013-07-15 07:44:00,
2013-07-15 00:45:00,54.7,48.6,30.02,N/A,-737280,0.0,-999.0,80,0.00,,,0.00,0,Wunderground v.1.15,2013-07-15 07:45:00,
2013-07-15 00:50:00,54.7,48.6,30.02,N/A,-737280,0.0,-999.0,80,0.00,,,0.00,0,Wunderground v.1.15,2013-07-15 07:50:00,
2013-07-15 00:55:00,54.3,48.6,30.02,ENE,68,0.0,-999.0,81,0.00,,,0.00,0,Wunderground v.1.15,2013-07-15 07:55:00,
2013-07-15 00:59:00,54.2,49.0,30.02,ENE,69,0.0,1.0,81,0.00,,,0.00,0,weatherlink.com 1.10,2013-07-15 07:59:00,
2013-07-15 01:00:00,54.3,48.6,30.02,ENE,68,0.0,-999.0,81,0.00,,,0.00,0,Wunderground v.1.15,2013-07-15 08:00:00,
2013-07-15 01:05:00,54.3,48.6,30.02,ENE,68,0.0,-999.0,81,0.00,,,0.00,0,Wunderground v.1.15,2013-07-15 08:05:00,
2013-07-15 01:10:00,53.9,48.5,30.02,N/A,-737280,0.0,-999.0,82,0.00,,,0.00,0,Wunderground v.1.15,2013-07-15 08:10:00,
2013-07-15 01:14:00,53.8,48.0,30.02,ENE,69,0.0,0.0,82,0.00,,,0.00,0,weatherlink.com 1.10,2013-07-15 08:14:00,
2013-07-15 01:15:00,53.9,48.5,30.02,N/A,-737280,0.0,-999.0,82,0.00,,,0.00,0,Wunderground v.1.15,2013-07-15 08:15:00,
2013-07-15 01:20:00,53.9,48.5,30.02,N/A,-737280,0.0,-999.0,82,0.00,,,0.00,0,Wunderground v.1.15,2013-07-15 08:20:00,
2013-07-15 01:25:00,53.6,48.6,30.02,N/A,-737280,0.0,-999.0,83,0.00,,,0.00,0,Wunderground v.1.15,2013-07-15 08:25:00,
2013-07-15 01:29:00,53.4,48.0,30.02,ENE,69,0.0,0.0,83,0.00,,,0.00,0,weatherlink.com 1.10,2013-07-15 08:29:00,
2013-07-15 01:30:00,53.6,48.6,30.02,N/A,-737280,0.0,-999.0,83,0.00,,,0.00,0,Wunderground v.1.15,2013-07-15 08:30:00,
2013-07-15 01:35:00,53.6,48.6,30.02,N/A,-737280,0.0,-999.0,83,0.00,,,0.00,0,Wunderground v.1.15,2013-07-15 08:35:00,
2013-07-15 01:40:00,53.2,48.5,30.02,N/A,-737280,0.0,-999.0,84,0.00,,,0.00,0,Wunderground v.1.15,2013-07-15 08:40:00,
2013-07-15 01:44:00,53.0,48.0,30.02,ENE,69,0.0,0.0,84,0.00,,,0.00,0,weatherlink.com 1.10,2013-07-15 08:44:00,
2013-07-15 01:45:00,53.2,48.5,30.02,N/A,-737280,0.0,-999.0,84,0.00,,,0.00,0,Wunderground v.1.15,2013-07-15 08:45:00,
2013-07-15 01:50:00,53.2,48.5,30.02,N/A,-737280,0.0,-999.0,84,0.00,,,0.00,0,Wunderground v.1.15,2013-07-15 08:50:00,
2013-07-15 01:55:00,52.7,48.3,30.02,N/A,-737280,0.0,-999.0,85,0.00,,,0.00,0,Wunderground v.1.15,2013-07-15 08:55:00,
2013-07-15 01:59:00,52.5,48.0,30.02,ENE,69,0.0,0.0,85,0.00,,,0.00,0,weatherlink.com 1.10,2013-07-15 08:59:00,
2013-07-15 02:00:00,52.7,48.3,30.02,N/A,-737280,0.0,-999.0,85,0.00,,,0.00,0,Wunderground v.1.15,2013-07-15 09:00:00,
2013-07-15 02:05:00,52.7,48.3,30.02,N/A,-737280,0.0,-999.0,85,0.00,,,0.00,0,Wunderground v.1.15,2013-07-15 09:05:00,
2013-07-15 02:10:00,52.1,48.0,30.02,N/A,-737280,0.0,-999.0,86,0.00,,,0.00,0,Wunderground v.1.15,2013-07-15 09:10:00,
2013-07-15 02:14:00,52.0,48.0,30.02,ENE,69,0.0,0.0,86,0.00,,,0.00,0,weatherlink.com 1.10,2013-07-15 09:14:00,
2013-07-15 02:15:00,52.1,48.0,30.02,N/A,-737280,0.0,-999.0,86,0.00,,,0.00,0,Wunderground v.1.15,2013-07-15 09:15:00,
2013-07-15 02:20:00,52.1,48.0,30.02,N/A,-737280,0.0,-999.0,86,0.00,,,0.00,0,Wunderground v.1.15,2013-07-15 09:20:00,
2013-07-15 02:25:00,51.7,48.0,30.02,N/A,-737280,0.0,-999.0,87,0.00,,,0.00,0,Wunderground v.1.15,2013-07-15 09:25:00,
2013-07-15 02:29:00,51.6,48.0,30.02,ENE,69,0.0,0.0,86,0.00,,,0.00,0,weatherlink.com 1.10,2013-07-15 09:29:00,
2013-07-15 02:30:00,51.7,48.0,30.02,N/A,-737280,0.0,-999.0,87,0.00,,,0.00,0,Wunderground v.1.15,2013-07-15 09:30:00,
2013-07-15 02:35:00,51.7,48.0,30.02,N/A,-737280,0.0,-999.0,87,0.00,,,0.00,0,Wunderground v.1.15,2013-07-15 09:35:00,
2013-07-15 02:40:00,51.3,47.9,30.02,N/A,-737280,0.0,-999.0,88,0.00,,,0.00,0,Wunderground v.1.15,2013-07-15 09:40:00,
2013-07-15 02:44:00,51.2,48.0,30.02,ENE,69,0.0,0.0,88,0.00,,,0.00,0,weatherlink.com 1.10,2013-07-15 09:44:00,
2013-07-15 02:45:00,51.3,47.9,30.02,N/A,-737280,0.0,-999.0,88,0.00,,,0.00,0,Wunderground v.1.15,2013-07-15 09:45:00,
2013-07-15 02:50:00,51.3,47.9,30.02,N/A,-737280,0.0,-999.0,88,0.00,,,0.00,0,Wunderground v.1.15,2013-07-15 09:50:00,
2013-07-15 02:55:00,50.9,47.8,30.02,N/A,-737280,0.0,-999.0,89,0.00,,,0.00,0,Wunderground v.1.15,2013-07-15 09:55:00,
2013-07-15 02:59:00,50.8,47.0,30.02,ENE,69,0.0,0.0,88,0.00,,,0.00,0,weatherlink.com 1.10,2013-07-15 09:59:00,
2013-07-15 03:00:00,50.9,47.8,30.02,N/A,-737280,0.0,-999.0,89,0.00,,,0.00,0,Wunderground v.1.15,2013-07-15 10:00:00,
2013-07-15 03:05:00,50.9,47.8,30.02,N/A,-737280,0.0,-999.0,89,0.00,,,0.00,0,Wunderground v.1.15,2013-07-15 10:05:00,
2013-07-15 03:10:00,50.5,47.4,30.02,N/A,-737280,0.0,-999.0,89,0.00,,,0.00,0,Wunderground v.1.15,2013-07-15 10:10:00,
2013-07-15 03:14:00,50.4,47.0,30.02,ENE,69,0.0,0.0,89,0.00,,,0.00,0,weatherlink.com 1.10,2013-07-15 10:14:00,
2013-07-15 03:15:00,50.5,47.4,30.02,N/A,-737280,0.0,-999.0,89,0.00,,,0.00,0,Wunderground v.1.15,2013-07-15 10:15:00,
2013-07-15 03:20:00,50.5,47.4,30.02,N/A,-737280,0.0,-999.0,89,0.00,,,0.00,0,Wunderground v.1.15,2013-07-15 10:20:00,
2013-07-15 03:25:00,50.2,47.4,30.02,N/A,-737280,0.0,-999.0,90,0.00,,,0.00,0,Wunderground v.1.15,2013-07-15 10:25:00,
2013-07-15 03:29:00,50.1,47.0,30.02,ENE,69,0.0,0.0,90,0.00,,,0.00,0,weatherlink.com 1.10,2013-07-15 10:29:00,
2013-07-15 03:30:00,50.2,47.4,30.02,N/A,-737280,0.0,-999.0,90,0.00,,,0.00,0,Wunderground v.1.15,2013-07-15 10:30:00,
2013-07-15 03:35:00,50.2,47.4,30.02,N/A,-737280,0.0,-999.0,90,0.00,,,0.00,0,Wunderground v.1.15,2013-07-15 10:35:00,
2013-07-15 03:40:00,49.8,47.0,30.02,N/A,-737280,0.0,-999.0,90,0.00,,,0.00,0,Wunderground v.1.15,2013-07-15 10:40:00,
2013-07-15 03:44:00,49.7,47.0,30.02,ENE,69,0.0,0.0,91,0.00,,,0.00,0,weatherlink.com 1.10,2013-07-15 10:44:00,
2013-07-15 03:45:00,49.8,47.0,30.02,N/A,-737280,0.0,-999.0,90,0.00,,,0.00,0,Wunderground v.1.15,2013-07-15 10:45:00,
2013-07-15 03:50:00,49.8,47.0,30.02,N/A,-737280,0.0,-999.0,90,0.00,,,0.00,0,Wunderground v.1.15,2013-07-15 10:50:00,
2013-07-15 03:55:00,49.5,47.0,30.02,N/A,-737280,0.0,-999.0,91,0.00,,,0.00,0,Wunderground v.1.15,2013-07-15 10:55:00,
2013-07-15 03:59:00,49.4,47.0,30.02,ENE,69,0.0,0.0,91,0.00,,,0.00,0,weatherlink.com 1.10,2013-07-15 10:59:00,
2013-07-15 04:00:00,49.5,47.0,30.02,N/A,-737280,0.0,-999.0,91,0.00,,,0.00,0,Wunderground v.1.15,2013-07-15 11:00:00,
2013-07-15 04:05:00,49.5,47.0,30.02,N/A,-737280,0.0,-999.0,91,0.00,,,0.00,0,Wunderground v.1.15,2013-07-15 11:05:00,
2013-07-15 04:10:00,49.2,46.7,30.02,N/A,-737280,0.0,-999.0,91,0.00,,,0.00,0,Wunderground v.1.15,2013-07-15 11:10:00,
2013-07-15 04:14:00,49.2,47.0,30.02,ENE,69,0.0,0.0,91,0.00,,,0.00,0,weatherlink.com 1.10,2013-07-15 11:14:00,
2013-07-15 04:15:00,49.2,46.7,30.02,N/A,-737280,0.0,-999.0,91,0.00,,,0.00,0,Wunderground v.1.15,2013-07-15 11:15:00,
2013-07-15 04:20:00,49.2,46.7,30.02,N/A,-737280,0.0,-999.0,91,0.00,,,0.00,0,Wunderground v.1.15,2013-07-15 11:20:00,
2013-07-15 04:25:00,49.0,46.5,30.02,N/A,-737280,0.0,-999.0,91,0.00,,,0.00,0,Wunderground v.1.15,2013-07-15 11:25:00,
2013-07-15 04:29:00,48.8,46.0,30.02,ENE,69,0.0,0.0,91,0.00,,,0.00,0,weatherlink.com 1.10,2013-07-15 11:29:00,
2013-07-15 04:30:00,49.0,46.5,30.02,N/A,-737280,0.0,-999.0,91,0.00,,,0.00,0,Wunderground v.1.15,2013-07-15 11:30:00,
2013-07-15 04:35:00,49.0,46.5,30.02,N/A,-737280,0.0,-999.0,91,0.00,,,0.00,0,Wunderground v.1.15,2013-07-15 11:35:00,
2013-07-15 04:40:00,48.6,46.4,30.03,N/A,-737280,0.0,-999.0,92,0.00,,,0.00,0,Wunderground v.1.15,2013-07-15 11:40:00,
2013-07-15 04:44:00,48.5,46.0,30.02,ENE,69,0.0,0.0,92,0.00,,,0.00,0,weatherlink.com 1.10,2013-07-15 11:44:00,
2013-07-15 04:45:00,48.6,46.4,30.03,N/A,-737280,0.0,-999.0,92,0.00,,,0.00,0,Wunderground v.1.15,2013-07-15 11:45:00,
2013-07-15 04:50:00,48.6,46.4,30.03,N/A,-737280,0.0,-999.0,92,0.00,,,0.00,0,Wunderground v.1.15,2013-07-15 11:50:00,
2013-07-15 04:55:00,48.4,46.2,30.03,N/A,-737280,0.0,-999.0,92,0.00,,,0.00,0,Wunderground v.1.15,2013-07-15 11:55:00,
2013-07-15 04:59:00,48.4,46.0,30.03,ENE,69,0.0,0.0,92,0.00,,,0.00,0,weatherlink.com 1.10,2013-07-15 11:59:00,
2013-07-15 05:00:00,48.4,46.2,30.03,N/A,-737280,0.0,-999.0,92,0.00,,,0.00,0,Wunderground v.1.15,2013-07-15 12:00:00,
2013-07-15 05:05:00,48.4,46.2,30.03,N/A,-737280,0.0,-999.0,92,0.00,,,0.00,0,Wunderground v.1.15,2013-07-15 12:05:00,
2013-07-15 05:10:00,48.2,46.3,30.03,N/A,-737280,0.0,-999.0,93,0.00,,,0.00,0,Wunderground v.1.15,2013-07-15 12:10:00,
2013-07-15 05:14:00,48.1,46.0,30.03,ENE,69,0.0,0.0,93,0.00,,,0.00,0,weatherlink.com 1.10,2013-07-15 12:14:00,
2013-07-15 05:15:00,48.2,46.3,30.03,N/A,-737280,0.0,-999.0,93,0.00,,,0.00,0,Wunderground v.1.15,2013-07-15 12:15:00,
2013-07-15 05:20:00,48.2,46.3,30.03,N/A,-737280,0.0,-999.0,93,0.00,,,0.00,0,Wunderground v.1.15,2013-07-15 12:20:00,
2013-07-15 05:25:00,48.1,46.2,30.03,N/A,-737280,0.0,-999.0,93,0.00,,,0.00,0,Wunderground v.1.15,2013-07-15 12:25:00,
2013-07-15 05:29:00,48.0,46.0,30.03,ENE,69,0.0,0.0,93,0.00,,,0.00,0,weatherlink.com 1.10,2013-07-15 12:29:00,
2013-07-15 05:30:00,48.1,46.2,30.03,N/A,-737280,0.0,-999.0,93,0.00,,,0.00,0,Wunderground v.1.15,2013-07-15 12:30:00,
2013-07-15 05:35:00,48.1,46.2,30.03,N/A,-737280,0.0,-999.0,93,0.00,,,0.00,0,Wunderground v.1.15,2013-07-15 12:35:00,
2013-07-15 05:40:00,47.8,45.9,30.04,N/A,-737280,0.0,-999.0,93,0.00,,,0.00,6,Wunderground v.1.15,2013-07-15 12:40:00,
2013-07-15 05:44:00,47.7,46.0,30.03,ENE,69,0.0,0.0,93,0.00,,,0.00,7,weatherlink.com 1.10,2013-07-15 12:44:00,
2013-07-15 05:45:00,47.8,45.9,30.04,N/A,-737280,0.0,-999.0,93,0.00,,,0.00,6,Wunderground v.1.15,2013-07-15 12:45:00,
2013-07-15 05:50:00,47.8,45.9,30.04,N/A,-737280,0.0,-999.0,93,0.00,,,0.00,6,Wunderground v.1.15,2013-07-15 12:50:00,
2013-07-15 05:55:00,47.6,45.7,30.04,N/A,-737280,0.0,-999.0,93,0.00,,,0.00,12,Wunderground v.1.15,2013-07-15 12:55:00,
2013-07-15 05:59:00,47.5,46.0,30.04,ENE,69,0.0,0.0,93,0.00,,,0.00,14,weatherlink.com 1.10,2013-07-15 12:59:00,
2013-07-15 06:00:00,47.6,45.7,30.04,N/A,-737280,0.0,-999.0,93,0.00,,,0.00,12,Wunderground v.1.15,2013-07-15 13:00:00,
2013-07-15 06:05:00,47.6,45.7,30.04,N/A,-737280,0.0,-999.0,93,0.00,,,0.00,12,Wunderground v.1.15,2013-07-15 13:05:00,
2013-07-15 06:10:00,47.5,45.6,30.04,N/A,-737280,0.0,-999.0,93,0.00,,,0.00,18,Wunderground v.1.15,2013-07-15 13:10:00,
2013-07-15 06:14:00,47.5,46.0,30.04,ENE,69,0.0,0.0,93,0.00,,,0.00,19,weatherlink.com 1.10,2013-07-15 13:14:00,
2013-07-15 06:15:00,47.5,45.6,30.04,N/A,-737280,0.0,-999.0,93,0.00,,,0.00,18,Wunderground v.1.15,2013-07-15 13:15:00,
2013-07-15 06:20:00,47.5,45.6,30.04,N/A,-737280,0.0,-999.0,93,0.00,,,0.00,18,Wunderground v.1.15,2013-07-15 13:20:00,
2013-07-15 06:25:00,47.7,46.1,30.04,N/A,-737280,0.0,-999.0,94,0.00,,,0.00,40,Wunderground v.1.15,2013-07-15 13:25:00,
2013-07-15 06:29:00,47.8,46.0,30.04,ENE,69,0.0,0.0,94,0.00,,,0.00,30,weatherlink.com 1.10,2013-07-15 13:29:00,
2013-07-15 06:30:00,47.7,46.1,30.04,N/A,-737280,0.0,-999.0,94,0.00,,,0.00,40,Wunderground v.1.15,2013-07-15 13:30:00,
2013-07-15 06:35:00,47.7,46.1,30.04,N/A,-737280,0.0,-999.0,94,0.00,,,0.00,40,Wunderground v.1.15,2013-07-15 13:35:00,
2013-07-15 06:40:00,48.1,46.5,30.04,N/A,-737280,0.0,-999.0,94,0.00,,,0.00,48,Wunderground v.1.15,2013-07-15 13:40:00,
2013-07-15 06:44:00,48.2,47.0,30.04,ENE,69,0.0,0.0,94,0.00,,,0.00,32,weatherlink.com 1.10,2013-07-15 13:44:00,
2013-07-15 06:45:00,48.1,46.5,30.04,N/A,-737280,0.0,-999.0,94,0.00,,,0.00,48,Wunderground v.1.15,2013-07-15 13:45:00,
2013-07-15 06:50:00,48.1,46.5,30.04,N/A,-737280,0.0,-999.0,94,0.00,,,0.00,48,Wunderground v.1.15,2013-07-15 13:50:00,
2013-07-15 06:55:00,48.6,47.0,30.04,N/A,-737280,0.0,-999.0,94,0.00,,,0.00,66,Wunderground v.1.15,2013-07-15 13:55:00,
2013-07-15 06:59:00,48.8,47.0,30.04,ENE,69,0.0,0.0,93,0.00,,,0.00,81,weatherlink.com 1.10,2013-07-15 13:59:00,
2013-07-15 07:00:00,48.6,47.0,30.04,N/A,-737280,0.0,-999.0,94,0.00,,,0.00,66,Wunderground v.1.15,2013-07-15 14:00:00,
2013-07-15 07:05:00,48.6,47.0,30.04,N/A,-737280,0.0,-999.0,94,0.00,,,0.00,66,Wunderground v.1.15,2013-07-15 14:05:00,
2013-07-15 07:10:00,49.6,47.9,30.04,East,90,0.0,-999.0,94,0.00,,,0.00,167,Wunderground v.1.15,2013-07-15 14:10:00,
2013-07-15 07:15:00,50.3,49.0,30.04,ENE,69,0.0,0.0,95,0.00,,,0.00,237,weatherlink.com 1.10,2013-07-15 14:15:00,
2013-07-15 07:20:00,49.6,47.9,30.04,East,90,0.0,-999.0,94,0.00,,,0.00,167,Wunderground v.1.15,2013-07-15 14:20:00,
2013-07-15 07:25:00,51.7,49.2,30.04,East,90,0.0,-999.0,91,0.00,,,0.00,128,Wunderground v.1.15,2013-07-15 14:25:00,
2013-07-15 07:30:00,52.6,50.0,30.04,East,93,0.0,2.0,91,0.00,,,0.00,128,weatherlink.com 1.10,2013-07-15 14:30:00,
2013-07-15 07:35:00,51.7,49.2,30.04,East,90,0.0,-999.0,91,0.00,,,0.00,128,Wunderground v.1.15,2013-07-15 14:35:00,
2013-07-15 07:40:00,53.4,50.2,30.04,N/A,-737280,0.0,-999.0,89,0.00,,,0.00,184,Wunderground v.1.15,2013-07-15 14:40:00,
2013-07-15 07:45:00,53.8,51.0,30.04,East,93,0.0,0.0,89,0.00,,,0.00,243,weatherlink.com 1.10,2013-07-15 14:45:00,
2013-07-15 07:50:00,53.4,50.2,30.04,N/A,-737280,0.0,-999.0,89,0.00,,,0.00,184,Wunderground v.1.15,2013-07-15 14:50:00,
2013-07-15 07:55:00,55.5,50.7,30.04,East,90,0.0,-999.0,84,0.00,,,0.00,220,Wunderground v.1.15,2013-07-15 14:55:00,
2013-07-15 08:00:00,56.5,52.0,30.04,East,93,0.0,1.0,85,0.00,,,0.00,297,weatherlink.com 1.10,2013-07-15 15:00:00,
2013-07-15 08:05:00,55.5,50.7,30.04,East,90,0.0,-999.0,84,0.00,,,0.00,220,Wunderground v.1.15,2013-07-15 15:05:00,
2013-07-15 08:10:00,57.9,51.8,30.04,ESE,113,0.0,-999.0,80,0.00,,,0.00,322,Wunderground v.1.15,2013-07-15 15:10:00,
2013-07-15 08:15:00,57.9,51.8,30.04,ESE,113,0.0,-999.0,80,0.00,,,0.00,322,Wunderground v.1.15,2013-07-15 15:15:00,
2013-07-15 08:20:00,57.9,51.8,30.04,ESE,113,0.0,-999.0,80,0.00,,,0.00,322,Wunderground v.1.15,2013-07-15 15:20:00,
2013-07-15 08:25:00,60.3,53.1,30.04,SSE,158,0.0,-999.0,77,0.00,,,0.00,363,Wunderground v.1.15,2013-07-15 15:25:00,
2013-07-15 08:30:00,61.0,54.0,30.04,SSE,153,0.0,1.0,77,0.00,,,0.00,378,weatherlink.com 1.10,2013-07-15 15:30:00,
2013-07-15 08:35:00,60.3,53.1,30.04,SSE,158,0.0,-999.0,77,0.00,,,0.00,363,Wunderground v.1.15,2013-07-15 15:35:00,
2013-07-15 08:40:00,60.6,54.7,30.04,WNW,293,2.0,-999.0,81,0.00,,,0.00,402,Wunderground v.1.15,2013-07-15 15:40:00,
2013-07-15 08:45:00,60.6,54.7,30.04,WNW,293,2.0,-999.0,81,0.00,,,0.00,402,Wunderground v.1.15,2013-07-15 15:45:00,
2013-07-15 08:50:00,60.6,54.7,30.04,WNW,293,2.0,-999.0,81,0.00,,,0.00,402,Wunderground v.1.15,2013-07-15 15:50:00,
2013-07-15 08:55:00,59.8,53.6,30.04,WNW,293,3.0,-999.0,80,0.00,,,0.00,438,Wunderground v.1.15,2013-07-15 15:55:00,
2013-07-15 09:00:00,59.6,53.0,30.04,WNW,303,4.0,7.0,80,0.00,,,0.00,454,weatherlink.com 1.10,2013-07-15 16:00:00,
2013-07-15 09:05:00,59.8,53.6,30.04,WNW,293,3.0,-999.0,80,0.00,,,0.00,438,Wunderground v.1.15,2013-07-15 16:05:00,
2013-07-15 09:10:00,60.2,52.6,30.04,WNW,293,2.0,-999.0,76,0.00,,,0.00,481,Wunderground v.1.15,2013-07-15 16:10:00,
2013-07-15 09:15:00,60.6,53.0,30.04,West,277,3.0,6.0,77,0.00,,,0.00,496,weatherlink.com 1.10,2013-07-15 16:15:00,
2013-07-15 09:20:00,60.2,52.6,30.04,WNW,293,2.0,-999.0,76,0.00,,,0.00,481,Wunderground v.1.15,2013-07-15 16:20:00,
2013-07-15 09:25:00,61.4,53.8,30.04,WNW,293,1.0,-999.0,76,0.00,,,0.00,520,Wunderground v.1.15,2013-07-15 16:25:00,
2013-07-15 09:30:00,61.9,54.0,30.04,NNE,14,0.0,5.0,76,0.00,,,0.00,534,weatherlink.com 1.10,2013-07-15 16:30:00,
2013-07-15 09:35:00,61.4,53.8,30.04,WNW,293,1.0,-999.0,76,0.00,,,0.00,520,Wunderground v.1.15,2013-07-15 16:35:00,
2013-07-15 09:40:00,62.7,54.7,30.04,WNW,293,1.0,-999.0,75,0.00,,,0.00,556,Wunderground v.1.15,2013-07-15 16:40:00,
2013-07-15 09:45:00,63.3,55.0,30.04,NNE,17,0.0,5.0,75,0.00,,,0.00,570,weatherlink.com 1.10,2013-07-15 16:45:00,
2013-07-15 09:50:00,62.7,54.7,30.04,WNW,293,1.0,-999.0,75,0.00,,,0.00,556,Wunderground v.1.15,2013-07-15 16:50:00,
2013-07-15 09:55:00,63.9,55.4,30.04,WNW,293,2.0,-999.0,74,0.00,,,0.00,591,Wunderground v.1.15,2013-07-15 16:55:00,
2013-07-15 10:00:00,64.6,56.0,30.04,NNW,329,1.0,5.0,74,0.00,,,0.00,608,weatherlink.com 1.10,2013-07-15 17:00:00,
2013-07-15 10:05:00,63.9,55.4,30.04,WNW,293,2.0,-999.0,74,0.00,,,0.00,591,Wunderground v.1.15,2013-07-15 17:05:00,
2013-07-15 10:10:00,65.0,56.5,30.03,WNW,293,2.0,-999.0,74,0.00,,,0.00,624,Wunderground v.1.15,2013-07-15 17:10:00,
2013-07-15 10:15:00,64.8,56.0,30.04,WNW,288,1.0,6.0,73,0.00,,,0.00,636,weatherlink.com 1.10,2013-07-15 17:15:00,
2013-07-15 10:20:00,65.0,56.5,30.03,WNW,293,2.0,-999.0,74,0.00,,,0.00,624,Wunderground v.1.15,2013-07-15 17:20:00,
2013-07-15 10:25:00,65.2,56.7,30.03,NW,315,2.0,-999.0,74,0.00,,,0.00,654,Wunderground v.1.15,2013-07-15 17:25:00,
2013-07-15 10:30:00,65.6,58.0,30.03,NW,325,0.0,5.0,75,0.00,,,0.00,663,weatherlink.com 1.10,2013-07-15 17:30:00,
2013-07-15 10:35:00,65.2,56.7,30.03,NW,315,2.0,-999.0,74,0.00,,,0.00,654,Wunderground v.1.15,2013-07-15 17:35:00,
2013-07-15 10:40:00,66.3,56.2,30.03,West,270,2.0,-999.0,70,0.00,,,0.00,687,Wunderground v.1.15,2013-07-15 17:40:00,
2013-07-15 10:45:00,66.6,57.0,30.03,NW,311,3.0,8.0,70,0.00,,,0.00,700,weatherlink.com 1.10,2013-07-15 17:45:00,
2013-07-15 10:50:00,66.3,56.2,30.03,West,270,2.0,-999.0,70,0.00,,,0.00,687,Wunderground v.1.15,2013-07-15 17:50:00,
2013-07-15 10:55:00,66.8,56.3,30.02,NW,315,3.0,-999.0,69,0.00,,,0.00,715,Wunderground v.1.15,2013-07-15 17:55:00,
2013-07-15 11:00:00,66.8,56.3,30.02,NW,315,3.0,-999.0,69,0.00,,,0.00,715,Wunderground v.1.15,2013-07-15 18:00:00,
2013-07-15 11:05:00,66.8,56.3,30.02,NW,315,3.0,-999.0,69,0.00,,,0.00,715,Wunderground v.1.15,2013-07-15 18:05:00,
2013-07-15 11:10:00,67.1,56.2,30.02,NW,315,3.0,-999.0,68,0.00,,,0.00,741,Wunderground v.1.15,2013-07-15 18:10:00,
2013-07-15 11:15:00,67.1,56.2,30.02,NW,315,3.0,-999.0,68,0.00,,,0.00,741,Wunderground v.1.15,2013-07-15 18:15:00,
2013-07-15 11:20:00,67.1,56.2,30.02,NW,315,3.0,-999.0,68,0.00,,,0.00,741,Wunderground v.1.15,2013-07-15 18:20:00,
2013-07-15 11:25:00,67.7,57.2,30.02,NW,315,3.0,-999.0,69,0.00,,,0.00,763,Wunderground v.1.15,2013-07-15 18:25:00,
2013-07-15 11:30:00,67.7,57.2,30.02,NW,315,3.0,-999.0,69,0.00,,,0.00,763,Wunderground v.1.15,2013-07-15 18:30:00,
2013-07-15 11:35:00,67.7,57.2,30.02,NW,315,3.0,-999.0,69,0.00,,,0.00,763,Wunderground v.1.15,2013-07-15 18:35:00,
2013-07-15 11:40:00,68.9,57.1,30.02,WNW,293,3.0,-999.0,66,0.00,,,0.00,783,Wunderground v.1.15,2013-07-15 18:40:00,
2013-07-15 11:45:00,68.9,57.1,30.02,WNW,293,3.0,-999.0,66,0.00,,,0.00,783,Wunderground v.1.15,2013-07-15 18:45:00,
2013-07-15 11:46:00,69.2,56.0,30.02,NW,321,2.0,5.0,63,0.00,,,0.00,791,weatherlink.com 1.10,2013-07-15 18:46:00,
2013-07-15 11:50:00,68.9,57.1,30.02,WNW,293,3.0,-999.0,66,0.00,,,0.00,783,Wunderground v.1.15,2013-07-15 18:50:00,
2013-07-15 11:55:00,69.8,56.2,30.01,NW,315,2.0,-999.0,62,0.00,,,0.00,804,Wunderground v.1.15,2013-07-15 18:55:00,
2013-07-15 12:00:00,69.8,56.2,30.01,NW,315,2.0,-999.0,62,0.00,,,0.00,804,Wunderground v.1.15,2013-07-15 19:00:00,
2013-07-15 12:01:00,70.2,56.0,30.01,NNW,334,0.0,6.0,62,0.00,,,0.00,810,weatherlink.com 1.10,2013-07-15 19:01:00,
2013-07-15 12:05:00,69.8,56.2,30.01,NW,315,2.0,-999.0,62,0.00,,,0.00,804,Wunderground v.1.15,2013-07-15 19:05:00,
2013-07-15 12:10:00,70.7,57.5,30.01,NW,315,3.0,-999.0,63,0.00,,,0.00,821,Wunderground v.1.15,2013-07-15 19:10:00,
2013-07-15 12:15:00,70.7,57.5,30.01,NW,315,3.0,-999.0,63,0.00,,,0.00,821,Wunderground v.1.15,2013-07-15 19:15:00,
2013-07-15 12:16:00,70.9,57.0,30.01,NNW,331,4.0,8.0,61,0.00,,,0.00,828,weatherlink.com 1.10,2013-07-15 19:16:00,
2013-07-15 12:20:00,70.7,57.5,30.01,NW,315,3.0,-999.0,63,0.00,,,0.00,821,Wunderground v.1.15,2013-07-15 19:20:00,
2013-07-15 12:25:00,71.4,57.2,30.01,WNW,293,3.0,-999.0,61,0.00,,,0.00,834,Wunderground v.1.15,2013-07-15 19:25:00,
2013-07-15 12:30:00,71.4,57.2,30.01,WNW,293,3.0,-999.0,61,0.00,,,0.00,834,Wunderground v.1.15,2013-07-15 19:30:00,
2013-07-15 12:31:00,71.5,57.0,30.01,West,271,4.0,8.0,61,0.00,,,0.00,838,weatherlink.com 1.10,2013-07-15 19:31:00,
2013-07-15 12:35:00,71.4,57.2,30.01,WNW,293,3.0,-999.0,61,0.00,,,0.00,834,Wunderground v.1.15,2013-07-15 19:35:00,
2013-07-15 12:40:00,71.3,57.2,30.01,WNW,293,4.0,-999.0,61,0.00,,,0.00,845,Wunderground v.1.15,2013-07-15 19:40:00,
2013-07-15 12:45:00,71.3,57.2,30.01,WNW,293,4.0,-999.0,61,0.00,,,0.00,845,Wunderground v.1.15,2013-07-15 19:45:00,
2013-07-15 12:46:00,71.3,57.0,30.01,NNW,331,9.0,9.0,61,0.00,,,0.00,847,weatherlink.com 1.10,2013-07-15 19:46:00,
2013-07-15 12:50:00,71.3,57.2,30.01,WNW,293,4.0,-999.0,61,0.00,,,0.00,845,Wunderground v.1.15,2013-07-15 19:50:00,
2013-07-15 12:55:00,71.5,56.4,30.00,NW,315,4.0,-999.0,59,0.00,,,0.00,852,Wunderground v.1.15,2013-07-15 19:55:00,
2013-07-15 13:00:00,71.5,56.4,30.00,NW,315,4.0,-999.0,59,0.00,,,0.00,852,Wunderground v.1.15,2013-07-15 20:00:00,
2013-07-15 13:01:00,71.9,57.0,30.00,WNW,284,9.0,10.0,59,0.00,,,0.00,854,weatherlink.com 1.10,2013-07-15 20:01:00,
2013-07-15 13:05:00,71.5,56.4,30.00,NW,315,4.0,-999.0,59,0.00,,,0.00,852,Wunderground v.1.15,2013-07-15 20:05:00,
2013-07-15 13:10:00,71.7,57.1,29.99,NW,315,5.0,-999.0,60,0.00,,,0.00,856,Wunderground v.1.15,2013-07-15 20:10:00,
2013-07-15 13:15:00,71.7,57.1,29.99,NW,315,5.0,-999.0,60,0.00,,,0.00,856,Wunderground v.1.15,2013-07-15 20:15:00,
2013-07-15 13:20:00,71.7,57.1,29.99,NW,315,5.0,-999.0,60,0.00,,,0.00,856,Wunderground v.1.15,2013-07-15 20:20:00,
2013-07-15 13:25:00,72.5,56.9,29.99,NW,315,3.0,-999.0,58,0.00,,,0.00,859,Wunderground v.1.15,2013-07-15 20:25:00,
2013-07-15 13:30:00,72.5,56.9,29.99,NW,315,3.0,-999.0,58,0.00,,,0.00,859,Wunderground v.1.15,2013-07-15 20:30:00,
2013-07-15 13:31:00,72.7,58.0,29.99,NW,304,7.0,8.0,60,0.00,,,0.00,861,weatherlink.com 1.10,2013-07-15 20:31:00,
2013-07-15 13:35:00,72.5,56.9,29.99,NW,315,3.0,-999.0,58,0.00,,,0.00,859,Wunderground v.1.15,2013-07-15 20:35:00,
2013-07-15 13:40:00,72.8,57.6,29.99,NW,315,4.0,-999.0,59,0.00,,,0.00,858,Wunderground v.1.15,2013-07-15 20:40:00,
2013-07-15 13:45:00,72.8,57.6,29.99,NW,315,4.0,-999.0,59,0.00,,,0.00,858,Wunderground v.1.15,2013-07-15 20:45:00,
2013-07-15 13:46:00,73.1,58.0,29.99,NW,310,4.0,9.0,59,0.00,,,0.00,856,weatherlink.com 1.10,2013-07-15 20:46:00,
2013-07-15 13:50:00,72.8,57.6,29.99,NW,315,4.0,-999.0,59,0.00,,,0.00,858,Wunderground v.1.15,2013-07-15 20:50:00,
2013-07-15 13:55:00,73.2,57.1,29.98,NW,315,5.0,-999.0,57,0.00,,,0.00,854,Wunderground v.1.15,2013-07-15 20:55:00,
2013-07-15 14:00:00,73.2,57.1,29.98,NW,315,5.0,-999.0,57,0.00,,,0.00,854,Wunderground v.1.15,2013-07-15 21:00:00,
2013-07-15 14:01:00,73.6,58.0,29.98,WSW,254,4.0,9.0,58,0.00,,,0.00,853,weatherlink.com 1.10,2013-07-15 21:01:00,
2013-07-15 14:05:00,73.2,57.1,29.98,NW,315,5.0,-999.0,57,0.00,,,0.00,854,Wunderground v.1.15,2013-07-15 21:05:00,
2013-07-15 14:10:00,74.1,56.4,29.98,WNW,293,5.0,-999.0,54,0.00,,,0.00,847,Wunderground v.1.15,2013-07-15 21:10:00,
2013-07-15 14:15:00,74.1,56.4,29.98,WNW,293,5.0,-999.0,54,0.00,,,0.00,847,Wunderground v.1.15,2013-07-15 21:15:00,
2013-07-15 14:16:00,74.2,56.0,29.98,WNW,300,5.0,11.0,54,0.00,,,0.00,842,weatherlink.com 1.10,2013-07-15 21:16:00,
2013-07-15 14:20:00,74.1,56.4,29.98,WNW,293,5.0,-999.0,54,0.00,,,0.00,847,Wunderground v.1.15,2013-07-15 21:20:00,
2013-07-15 14:25:00,74.8,56.0,29.98,WNW,293,3.0,-999.0,52,0.00,,,0.00,837,Wunderground v.1.15,2013-07-15 21:25:00,
2013-07-15 14:30:00,74.8,56.0,29.98,WNW,293,3.0,-999.0,52,0.00,,,0.00,837,Wunderground v.1.15,2013-07-15 21:30:00,
2013-07-15 14:31:00,75.1,56.0,29.98,WNW,292,5.0,11.0,52,0.00,,,0.00,833,weatherlink.com 1.10,2013-07-15 21:31:00,
2013-07-15 14:35:00,74.8,56.0,29.98,WNW,293,3.0,-999.0,52,0.00,,,0.00,837,Wunderground v.1.15,2013-07-15 21:35:00,
2013-07-15 14:40:00,74.8,56.0,29.97,WNW,293,5.0,-999.0,52,0.00,,,0.00,824,Wunderground v.1.15,2013-07-15 21:40:00,
2013-07-15 14:45:00,74.8,56.0,29.97,WNW,293,5.0,-999.0,52,0.00,,,0.00,824,Wunderground v.1.15,2013-07-15 21:45:00,
2013-07-15 14:46:00,74.4,56.0,29.97,NW,311,3.0,15.0,52,0.00,,,0.00,817,weatherlink.com 1.10,2013-07-15 21:46:00,
2013-07-15 14:50:00,74.8,56.0,29.97,WNW,293,5.0,-999.0,52,0.00,,,0.00,824,Wunderground v.1.15,2013-07-15 21:50:00,
2013-07-15 14:55:00,75.0,55.1,29.96,WNW,293,4.0,-999.0,50,0.00,,,0.00,809,Wunderground v.1.15,2013-07-15 21:55:00,
2013-07-15 15:00:00,75.0,55.1,29.96,WNW,293,4.0,-999.0,50,0.00,,,0.00,809,Wunderground v.1.15,2013-07-15 22:00:00,
2013-07-15 15:01:00,75.4,55.0,29.96,WNW,284,3.0,9.0,50,0.00,,,0.00,802,weatherlink.com 1.10,2013-07-15 22:01:00,
2013-07-15 15:05:00,75.0,55.1,29.96,WNW,293,4.0,-999.0,50,0.00,,,0.00,809,Wunderground v.1.15,2013-07-15 22:05:00,
2013-07-15 15:10:00,75.6,56.2,29.95,NW,315,4.0,-999.0,51,0.00,,,0.00,791,Wunderground v.1.15,2013-07-15 22:10:00,
2013-07-15 15:15:00,75.6,56.2,29.95,NW,315,4.0,-999.0,51,0.00,,,0.00,791,Wunderground v.1.15,2013-07-15 22:15:00,
2013-07-15 15:16:00,75.9,56.0,29.95,NW,320,6.0,10.0,51,0.00,,,0.00,780,weatherlink.com 1.10,2013-07-15 22:16:00,
2013-07-15 15:20:00,75.6,56.2,29.95,NW,315,4.0,-999.0,51,0.00,,,0.00,791,Wunderground v.1.15,2013-07-15 22:20:00,
2013-07-15 15:25:00,75.7,56.8,29.95,WNW,293,5.0,-999.0,52,0.00,,,0.00,769,Wunderground v.1.15,2013-07-15 22:25:00,
2013-07-15 15:30:00,75.7,56.8,29.95,WNW,293,5.0,-999.0,52,0.00,,,0.00,769,Wunderground v.1.15,2013-07-15 22:30:00,
2013-07-15 15:31:00,75.7,57.0,29.95,NW,317,6.0,11.0,52,0.00,,,0.00,759,weatherlink.com 1.10,2013-07-15 22:31:00,
2013-07-15 15:35:00,75.7,56.8,29.95,WNW,293,5.0,-999.0,52,0.00,,,0.00,769,Wunderground v.1.15,2013-07-15 22:35:00,
2013-07-15 15:40:00,76.1,56.1,29.94,NW,315,4.0,-999.0,50,0.00,,,0.00,745,Wunderground v.1.15,2013-07-15 22:40:00,
2013-07-15 15:45:00,76.1,56.1,29.94,NW,315,4.0,-999.0,50,0.00,,,0.00,745,Wunderground v.1.15,2013-07-15 22:45:00,
2013-07-15 15:46:00,76.3,56.0,29.95,NW,319,4.0,11.0,50,0.00,,,0.00,735,weatherlink.com 1.10,2013-07-15 22:46:00,
2013-07-15 15:50:00,76.1,56.1,29.94,NW,315,4.0,-999.0,50,0.00,,,0.00,745,Wunderground v.1.15,2013-07-15 22:50:00,
2013-07-15 15:55:00,76.4,57.5,29.94,WNW,293,5.0,-999.0,52,0.00,,,0.00,720,Wunderground v.1.15,2013-07-15 22:55:00,
2013-07-15 16:00:00,76.4,57.5,29.94,WNW,293,5.0,-999.0,52,0.00,,,0.00,720,Wunderground v.1.15,2013-07-15 23:00:00,
2013-07-15 16:05:00,76.4,57.5,29.94,WNW,293,5.0,-999.0,52,0.00,,,0.00,720,Wunderground v.1.15,2013-07-15 23:05:00,
2013-07-15 16:10:00,76.4,56.4,29.94,WNW,293,4.0,-999.0,50,0.00,,,0.00,690,Wunderground v.1.15,2013-07-15 23:10:00,
2013-07-15 16:15:00,76.4,56.4,29.94,WNW,293,4.0,-999.0,50,0.00,,,0.00,690,Wunderground v.1.15,2013-07-15 23:15:00,
2013-07-15 16:16:00,76.0,56.0,29.94,WNW,297,7.0,15.0,50,0.00,,,0.00,677,weatherlink.com 1.10,2013-07-15 23:16:00,
2013-07-15 16:20:00,76.4,56.4,29.94,WNW,293,4.0,-999.0,50,0.00,,,0.00,690,Wunderground v.1.15,2013-07-15 23:20:00,
2013-07-15 16:25:00,76.0,56.0,29.93,WNW,293,4.0,-999.0,50,0.00,,,0.00,662,Wunderground v.1.15,2013-07-15 23:25:00,
2013-07-15 16:30:00,76.0,56.0,29.93,WNW,293,4.0,-999.0,50,0.00,,,0.00,662,Wunderground v.1.15,2013-07-15 23:30:00,
2013-07-15 16:31:00,76.3,56.0,29.93,NW,304,2.0,9.0,50,0.00,,,0.00,647,weatherlink.com 1.10,2013-07-15 23:31:00,
2013-07-15 16:35:00,76.0,56.0,29.93,WNW,293,4.0,-999.0,50,0.00,,,0.00,662,Wunderground v.1.15,2013-07-15 23:35:00,
2013-07-15 16:40:00,76.2,55.1,29.93,WNW,293,5.0,-999.0,48,0.00,,,0.00,527,Wunderground v.1.15,2013-07-15 23:40:00,
2013-07-15 16:45:00,76.2,55.1,29.93,WNW,293,5.0,-999.0,48,0.00,,,0.00,527,Wunderground v.1.15,2013-07-15 23:45:00,
2013-07-15 16:46:00,76.0,55.0,29.93,NNW,332,6.0,10.0,48,0.00,,,0.00,615,weatherlink.com 1.10,2013-07-15 23:46:00,
2013-07-15 16:50:00,76.2,55.1,29.93,WNW,293,5.0,-999.0,48,0.00,,,0.00,527,Wunderground v.1.15,2013-07-15 23:50:00,
2013-07-15 16:55:00,76.0,54.3,29.92,WNW,293,5.0,-999.0,47,0.00,,,0.00,566,Wunderground v.1.15,2013-07-15 23:55:00,
2013-07-15 17:00:00,76.0,54.3,29.92,WNW,293,5.0,-999.0,47,0.00,,,0.00,566,Wunderground v.1.15,2013-07-16 00:00:00,
2013-07-15 17:01:00,75.7,54.0,29.92,WNW,300,5.0,11.0,47,0.00,,,0.00,527,weatherlink.com 1.10,2013-07-16 00:01:00,
2013-07-15 17:05:00,76.0,54.3,29.92,WNW,293,5.0,-999.0,47,0.00,,,0.00,566,Wunderground v.1.15,2013-07-16 00:05:00,
2013-07-15 17:10:00,75.9,54.2,29.91,WNW,293,5.0,-999.0,47,0.00,,,0.00,550,Wunderground v.1.15,2013-07-16 00:10:00,
2013-07-15 17:15:00,75.9,54.2,29.91,WNW,293,5.0,-999.0,47,0.00,,,0.00,550,Wunderground v.1.15,2013-07-16 00:15:00,
2013-07-15 17:16:00,76.1,54.0,29.91,NW,312,4.0,11.0,47,0.00,,,0.00,469,weatherlink.com 1.10,2013-07-16 00:16:00,
2013-07-15 17:20:00,75.9,54.2,29.91,WNW,293,5.0,-999.0,47,0.00,,,0.00,550,Wunderground v.1.15,2013-07-16 00:20:00,
2013-07-15 17:25:00,76.7,53.8,29.91,NW,315,4.0,-999.0,45,0.00,,,0.00,526,Wunderground v.1.15,2013-07-16 00:25:00,
2013-07-15 17:30:00,76.7,53.8,29.91,NW,315,4.0,-999.0,45,0.00,,,0.00,526,Wunderground v.1.15,2013-07-16 00:30:00,
2013-07-15 17:35:00,76.7,53.8,29.91,NW,315,4.0,-999.0,45,0.00,,,0.00,526,Wunderground v.1.15,2013-07-16 00:35:00,
2013-07-15 17:40:00,77.0,54.6,29.91,NW,315,3.0,-999.0,46,0.00,,,0.00,488,Wunderground v.1.15,2013-07-16 00:40:00,
2013-07-15 17:45:00,77.0,54.6,29.91,NW,315,3.0,-999.0,46,0.00,,,0.00,488,Wunderground v.1.15,2013-07-16 00:45:00,
2013-07-15 17:46:00,77.2,55.0,29.91,WNW,296,3.0,7.0,46,0.00,,,0.00,471,weatherlink.com 1.10,2013-07-16 00:46:00,
2013-07-15 17:50:00,77.0,54.6,29.91,NW,315,3.0,-999.0,46,0.00,,,0.00,488,Wunderground v.1.15,2013-07-16 00:50:00,
2013-07-15 17:55:00,77.0,54.0,29.90,NW,315,3.0,-999.0,45,0.00,,,0.00,450,Wunderground v.1.15,2013-07-16 00:55:00,
2013-07-15 18:00:00,77.0,54.0,29.90,NW,315,3.0,-999.0,45,0.00,,,0.00,450,Wunderground v.1.15,2013-07-16 01:00:00,
2013-07-15 18:01:00,77.2,54.0,29.90,WNW,294,1.0,6.0,45,0.00,,,0.00,432,weatherlink.com 1.10,2013-07-16 01:01:00,
2013-07-15 18:05:00,77.0,54.0,29.90,NW,315,3.0,-999.0,45,0.00,,,0.00,450,Wunderground v.1.15,2013-07-16 01:05:00,
2013-07-15 18:10:00,77.3,50.4,29.90,WNW,293,4.0,-999.0,39,0.00,,,0.00,412,Wunderground v.1.15,2013-07-16 01:10:00,
2013-07-15 18:15:00,77.3,50.4,29.90,WNW,293,4.0,-999.0,39,0.00,,,0.00,412,Wunderground v.1.15,2013-07-16 01:15:00,
2013-07-15 18:16:00,77.3,50.0,29.90,West,279,3.0,10.0,39,0.00,,,0.00,392,weatherlink.com 1.10,2013-07-16 01:16:00,
2013-07-15 18:20:00,77.3,50.4,29.90,WNW,293,4.0,-999.0,39,0.00,,,0.00,412,Wunderground v.1.15,2013-07-16 01:20:00,
2013-07-15 18:25:00,77.6,49.3,29.90,WNW,293,4.0,-999.0,37,0.00,,,0.00,373,Wunderground v.1.15,2013-07-16 01:25:00,
2013-07-15 18:30:00,77.6,49.3,29.90,WNW,293,4.0,-999.0,37,0.00,,,0.00,373,Wunderground v.1.15,2013-07-16 01:30:00,
2013-07-15 18:31:00,77.3,49.0,29.90,NE,36,1.0,11.0,37,0.00,,,0.00,353,weatherlink.com 1.10,2013-07-16 01:31:00,
2013-07-15 18:35:00,77.6,49.3,29.90,WNW,293,4.0,-999.0,37,0.00,,,0.00,373,Wunderground v.1.15,2013-07-16 01:35:00,
2013-07-15 18:40:00,77.3,47.5,29.90,WNW,293,3.0,-999.0,35,0.00,,,0.00,331,Wunderground v.1.15,2013-07-16 01:40:00,
2013-07-15 18:45:00,77.3,47.5,29.90,WNW,293,3.0,-999.0,35,0.00,,,0.00,331,Wunderground v.1.15,2013-07-16 01:45:00,
2013-07-15 18:46:00,77.6,48.0,29.90,NNE,19,3.0,8.0,35,0.00,,,0.00,313,weatherlink.com 1.10,2013-07-16 01:46:00,
2013-07-15 18:50:00,77.3,47.5,29.90,WNW,293,3.0,-999.0,35,0.00,,,0.00,331,Wunderground v.1.15,2013-07-16 01:50:00,
2013-07-15 18:55:00,77.6,48.5,29.89,NW,315,3.0,-999.0,36,0.00,,,0.00,290,Wunderground v.1.15,2013-07-16 01:55:00,
2013-07-15 19:00:00,77.6,48.5,29.89,NW,315,3.0,-999.0,36,0.00,,,0.00,290,Wunderground v.1.15,2013-07-16 02:00:00,
2013-07-15 19:05:00,77.6,48.5,29.89,NW,315,3.0,-999.0,36,0.00,,,0.00,290,Wunderground v.1.15,2013-07-16 02:05:00,
2013-07-15 19:10:00,77.1,47.3,29.89,NW,315,3.0,-999.0,35,0.00,,,0.00,250,Wunderground v.1.15,2013-07-16 02:10:00,
2013-07-15 19:15:00,77.1,47.3,29.89,NW,315,3.0,-999.0,35,0.00,,,0.00,250,Wunderground v.1.15,2013-07-16 02:15:00,
2013-07-15 19:16:00,77.0,47.0,29.89,WNW,296,2.0,9.0,35,0.00,,,0.00,230,weatherlink.com 1.10,2013-07-16 02:16:00,
2013-07-15 19:20:00,77.1,47.3,29.89,NW,315,3.0,-999.0,35,0.00,,,0.00,250,Wunderground v.1.15,2013-07-16 02:20:00,
2013-07-15 19:25:00,77.2,48.2,29.89,WNW,293,2.0,-999.0,36,0.00,,,0.00,208,Wunderground v.1.15,2013-07-16 02:25:00,
2013-07-15 19:30:00,77.2,48.2,29.89,WNW,293,2.0,-999.0,36,0.00,,,0.00,208,Wunderground v.1.15,2013-07-16 02:30:00,
2013-07-15 19:31:00,77.1,48.0,29.89,WNW,303,3.0,5.0,36,0.00,,,0.00,188,weatherlink.com 1.10,2013-07-16 02:31:00,
2013-07-15 19:35:00,77.2,48.2,29.89,WNW,293,2.0,-999.0,36,0.00,,,0.00,208,Wunderground v.1.15,2013-07-16 02:35:00,
2013-07-15 19:40:00,76.8,47.1,29.89,WNW,293,2.0,-999.0,35,0.00,,,0.00,166,Wunderground v.1.15,2013-07-16 02:40:00,
2013-07-15 19:45:00,76.8,47.1,29.89,WNW,293,2.0,-999.0,35,0.00,,,0.00,166,Wunderground v.1.15,2013-07-16 02:45:00,
2013-07-15 19:46:00,76.6,47.0,29.89,NW,321,0.0,7.0,35,0.00,,,0.00,146,weatherlink.com 1.10,2013-07-16 02:46:00,
2013-07-15 19:50:00,76.8,47.1,29.89,WNW,293,2.0,-999.0,35,0.00,,,0.00,166,Wunderground v.1.15,2013-07-16 02:50:00,
2013-07-15 19:55:00,76.1,46.5,29.89,NW,315,3.0,-999.0,35,0.00,,,0.00,123,Wunderground v.1.15,2013-07-16 02:55:00,
2013-07-15 20:00:00,76.1,46.5,29.89,NW,315,3.0,-999.0,35,0.00,,,0.00,123,Wunderground v.1.15,2013-07-16 03:00:00,
2013-07-15 20:01:00,75.4,46.0,29.89,NW,307,2.0,9.0,35,0.00,,,0.00,102,weatherlink.com 1.10,2013-07-16 03:01:00,
2013-07-15 20:05:00,76.1,46.5,29.89,NW,315,3.0,-999.0,35,0.00,,,0.00,123,Wunderground v.1.15,2013-07-16 03:05:00,
2013-07-15 20:10:00,74.9,45.4,29.89,WNW,293,3.0,-999.0,35,0.00,,,0.00,82,Wunderground v.1.15,2013-07-16 03:10:00,
2013-07-15 20:15:00,74.9,45.4,29.89,WNW,293,3.0,-999.0,35,0.00,,,0.00,82,Wunderground v.1.15,2013-07-16 03:15:00,
2013-07-15 20:17:00,74.5,45.0,29.89,WNW,301,2.0,8.0,35,0.00,,,0.00,65,weatherlink.com 1.10,2013-07-16 03:17:00,
2013-07-15 20:20:00,74.9,45.4,29.89,WNW,293,3.0,-999.0,35,0.00,,,0.00,82,Wunderground v.1.15,2013-07-16 03:20:00,
2013-07-15 20:25:00,74.1,46.2,29.90,WNW,293,2.0,-999.0,37,0.00,,,0.00,38,Wunderground v.1.15,2013-07-16 03:25:00,
2013-07-15 20:30:00,74.1,46.2,29.90,WNW,293,2.0,-999.0,37,0.00,,,0.00,38,Wunderground v.1.15,2013-07-16 03:30:00,
2013-07-15 20:32:00,73.4,45.0,29.89,West,281,2.0,6.0,37,0.00,,,0.00,14,weatherlink.com 1.10,2013-07-16 03:32:00,
2013-07-15 20:35:00,74.1,46.2,29.90,WNW,293,2.0,-999.0,37,0.00,,,0.00,38,Wunderground v.1.15,2013-07-16 03:35:00,
2013-07-15 20:40:00,72.6,46.2,29.89,NW,315,2.0,-999.0,39,0.00,,,0.00,11,Wunderground v.1.15,2013-07-16 03:40:00,
2013-07-15 20:45:00,72.6,46.2,29.89,NW,315,2.0,-999.0,39,0.00,,,0.00,11,Wunderground v.1.15,2013-07-16 03:45:00,
2013-07-15 20:47:00,72.0,46.0,29.89,NW,317,0.0,7.0,39,0.00,,,0.00,9,weatherlink.com 1.10,2013-07-16 03:47:00,
2013-07-15 20:50:00,72.6,46.2,29.89,NW,315,2.0,-999.0,39,0.00,,,0.00,11,Wunderground v.1.15,2013-07-16 03:50:00,
2013-07-15 20:55:00,71.6,46.6,29.89,NW,315,1.0,-999.0,41,0.00,,,0.00,6,Wunderground v.1.15,2013-07-16 03:55:00,
2013-07-15 21:00:00,71.6,46.6,29.89,NW,315,1.0,-999.0,41,0.00,,,0.00,6,Wunderground v.1.15,2013-07-16 04:00:00,
2013-07-15 21:02:00,71.2,46.0,29.89,West,277,0.0,3.0,41,0.00,,,0.00,0,weatherlink.com 1.10,2013-07-16 04:02:00,
2013-07-15 21:05:00,71.6,46.6,29.89,NW,315,1.0,-999.0,41,0.00,,,0.00,6,Wunderground v.1.15,2013-07-16 04:05:00,
2013-07-15 21:10:00,70.9,47.9,29.89,NNW,338,0.0,-999.0,44,0.00,,,0.00,0,Wunderground v.1.15,2013-07-16 04:10:00,
2013-07-15 21:15:00,70.9,47.9,29.89,NNW,338,0.0,-999.0,44,0.00,,,0.00,0,Wunderground v.1.15,2013-07-16 04:15:00,
2013-07-15 21:17:00,70.5,47.0,29.89,NNW,335,0.0,2.0,44,0.00,,,0.00,0,weatherlink.com 1.10,2013-07-16 04:17:00,
2013-07-15 21:20:00,70.9,47.9,29.89,NNW,338,0.0,-999.0,44,0.00,,,0.00,0,Wunderground v.1.15,2013-07-16 04:20:00,
2013-07-15 21:25:00,70.0,48.3,29.90,WNW,293,0.0,-999.0,46,0.00,,,0.00,0,Wunderground v.1.15,2013-07-16 04:25:00,
2013-07-15 21:30:00,70.0,48.3,29.90,WNW,293,0.0,-999.0,46,0.00,,,0.00,0,Wunderground v.1.15,2013-07-16 04:30:00,
2013-07-15 21:32:00,69.6,48.0,29.90,WNW,298,1.0,4.0,47,0.00,,,0.00,0,weatherlink.com 1.10,2013-07-16 04:32:00,
2013-07-15 21:35:00,70.0,48.3,29.90,WNW,293,0.0,-999.0,46,0.00,,,0.00,0,Wunderground v.1.15,2013-07-16 04:35:00,
2013-07-15 21:40:00,69.3,49.3,29.90,NNE,23,0.0,-999.0,49,0.00,,,0.00,0,Wunderground v.1.15,2013-07-16 04:40:00,
2013-07-15 21:45:00,69.3,49.3,29.90,NNE,23,0.0,-999.0,49,0.00,,,0.00,0,Wunderground v.1.15,2013-07-16 04:45:00,
2013-07-15 21:47:00,68.9,49.0,29.90,NNE,15,0.0,1.0,49,0.00,,,0.00,0,weatherlink.com 1.10,2013-07-16 04:47:00,
2013-07-15 21:50:00,69.3,49.3,29.90,NNE,23,0.0,-999.0,49,0.00,,,0.00,0,Wunderground v.1.15,2013-07-16 04:50:00,
2013-07-15 21:55:00,68.6,49.2,29.91,NNE,23,0.0,-999.0,50,0.00,,,0.00,0,Wunderground v.1.15,2013-07-16 04:55:00,
2013-07-15 22:00:00,68.6,49.2,29.91,NNE,23,0.0,-999.0,50,0.00,,,0.00,0,Wunderground v.1.15,2013-07-16 05:00:00,
2013-07-15 22:02:00,68.4,49.0,29.91,NNW,346,0.0,3.0,50,0.00,,,0.00,0,weatherlink.com 1.10,2013-07-16 05:02:00,
2013-07-15 22:05:00,68.6,49.2,29.91,NNE,23,0.0,-999.0,50,0.00,,,0.00,0,Wunderground v.1.15,2013-07-16 05:05:00,
2013-07-15 22:10:00,68.2,49.9,29.91,NNW,338,0.0,-999.0,52,0.00,,,0.00,0,Wunderground v.1.15,2013-07-16 05:10:00,
2013-07-15 22:15:00,68.2,49.9,29.91,NNW,338,0.0,-999.0,52,0.00,,,0.00,0,Wunderground v.1.15,2013-07-16 05:15:00,
2013-07-15 22:17:00,67.8,49.0,29.91,NNW,346,0.0,1.0,52,0.00,,,0.00,0,weatherlink.com 1.10,2013-07-16 05:17:00,
2013-07-15 22:20:00,68.2,49.9,29.91,NNW,338,0.0,-999.0,52,0.00,,,0.00,0,Wunderground v.1.15,2013-07-16 05:20:00,
2013-07-15 22:25:00,67.6,49.3,29.90,West,270,1.0,-999.0,52,0.00,,,0.00,0,Wunderground v.1.15,2013-07-16 05:25:00,
2013-07-15 22:30:00,67.6,49.3,29.90,West,270,1.0,-999.0,52,0.00,,,0.00,0,Wunderground v.1.15,2013-07-16 05:30:00,
2013-07-15 22:32:00,67.3,49.0,29.90,NNW,345,0.0,3.0,52,0.00,,,0.00,0,weatherlink.com 1.10,2013-07-16 05:32:00,
2013-07-15 22:35:00,67.6,49.3,29.90,West,270,1.0,-999.0,52,0.00,,,0.00,0,Wunderground v.1.15,2013-07-16 05:35:00,
2013-07-15 22:40:00,67.3,49.6,29.90,North,0,1.0,-999.0,53,0.00,,,0.00,0,Wunderground v.1.15,2013-07-16 05:40:00,
2013-07-15 22:45:00,67.3,49.6,29.90,North,0,1.0,-999.0,53,0.00,,,0.00,0,Wunderground v.1.15,2013-07-16 05:45:00,
2013-07-15 22:47:00,67.2,49.0,29.90,NNE,18,0.0,3.0,53,0.00,,,0.00,0,weatherlink.com 1.10,2013-07-16 05:47:00,
2013-07-15 22:50:00,67.3,49.6,29.90,North,0,1.0,-999.0,53,0.00,,,0.00,0,Wunderground v.1.15,2013-07-16 05:50:00,
2013-07-15 22:55:00,66.8,50.6,29.91,NNE,23,0.0,-999.0,56,0.00,,,0.00,0,Wunderground v.1.15,2013-07-16 05:55:00,
2013-07-15 23:00:00,66.8,50.6,29.91,NNE,23,0.0,-999.0,56,0.00,,,0.00,0,Wunderground v.1.15,2013-07-16 06:00:00,
2013-07-15 23:02:00,66.4,50.0,29.91,NNE,18,0.0,1.0,56,0.00,,,0.00,0,weatherlink.com 1.10,2013-07-16 06:02:00,
2013-07-15 23:05:00,66.8,50.6,29.91,NNE,23,0.0,-999.0,56,0.00,,,0.00,0,Wunderground v.1.15,2013-07-16 06:05:00,
2013-07-15 23:10:00,65.8,51.1,29.90,N/A,-737280,0.0,-999.0,59,0.00,,,0.00,0,Wunderground v.1.15,2013-07-16 06:10:00,
2013-07-15 23:15:00,65.8,51.1,29.90,N/A,-737280,0.0,-999.0,59,0.00,,,0.00,0,Wunderground v.1.15,2013-07-16 06:15:00,
2013-07-15 23:17:00,65.2,50.0,29.90,NNE,18,0.0,0.0,59,0.00,,,0.00,0,weatherlink.com 1.10,2013-07-16 06:17:00,
2013-07-15 23:20:00,65.8,51.1,29.90,N/A,-737280,0.0,-999.0,59,0.00,,,0.00,0,Wunderground v.1.15,2013-07-16 06:20:00,
2013-07-15 23:25:00,64.5,51.2,29.90,N/A,-737280,0.0,-999.0,62,0.00,,,0.00,0,Wunderground v.1.15,2013-07-16 06:25:00,
2013-07-15 23:30:00,64.5,51.2,29.90,N/A,-737280,0.0,-999.0,62,0.00,,,0.00,0,Wunderground v.1.15,2013-07-16 06:30:00,
2013-07-15 23:32:00,63.9,50.0,29.90,NNE,18,0.0,0.0,62,0.00,,,0.00,0,weatherlink.com 1.10,2013-07-16 06:32:00,
2013-07-15 23:35:00,64.5,51.2,29.90,N/A,-737280,0.0,-999.0,62,0.00,,,0.00,0,Wunderground v.1.15,2013-07-16 06:35:00,
2013-07-15 23:40:00,63.3,50.9,29.90,N/A,-737280,0.0,-999.0,64,0.00,,,0.00,0,Wunderground v.1.15,2013-07-16 06:40:00,
2013-07-15 23:45:00,63.3,50.9,29.90,N/A,-737280,0.0,-999.0,64,0.00,,,0.00,0,Wunderground v.1.15,2013-07-16 06:45:00,
2013-07-15 23:47:00,62.7,50.0,29.90,NNE,18,0.0,0.0,64,0.00,,,0.00,0,weatherlink.com 1.10,2013-07-16 06:47:00,
2013-07-15 23:50:00,63.3,50.9,29.90,N/A,-737280,0.0,-999.0,64,0.00,,,0.00,0,Wunderground v.1.15,2013-07-16 06:50:00,
2013-07-15 23:55:00,62.0,51.3,29.90,N/A,-737280,0.0,-999.0,68,0.00,,,0.00,0,Wunderground v.1.15,2013-07-16 06:55:00,